createdAt,value
2017-08-18T00:00:12.688Z,1001.02
2017-08-18T00:01:12.710Z,1001.01
2017-08-18T00:02:12.734Z,1001.02
2017-08-18T00:03:12.759Z,1001.02
2017-08-18T00:04:12.780Z,1001.01
2017-08-18T00:05:12.804Z,1001.01
2017-08-18T00:06:12.829Z,1001.00
2017-08-18T00:07:12.853Z,1001.03
2017-08-18T00:08:12.882Z,1000.99
2017-08-18T00:09:12.900Z,1001.00
2017-08-18T00:10:12.930Z,1001.03
2017-08-18T00:11:12.945Z,1001.05
2017-08-18T00:12:12.969Z,1001.03
2017-08-18T00:13:12.997Z,1001.01
2017-08-18T00:14:13.017Z,1001.04
2017-08-18T00:15:13.041Z,1001.05
2017-08-18T00:16:13.065Z,1001.05
2017-08-18T00:17:13.092Z,1001.03
2017-08-18T00:18:13.110Z,1001.05
2017-08-18T00:19:13.137Z,1001.06
2017-08-18T00:20:13.161Z,1001.03
2017-08-18T00:21:13.184Z,1001.02
2017-08-18T00:22:13.206Z,1000.99
2017-08-18T00:23:13.238Z,1000.96
2017-08-18T00:24:13.256Z,1000.96
2017-08-18T00:25:13.276Z,1000.95
2017-08-18T00:26:13.307Z,1000.97
2017-08-18T00:27:13.324Z,1001.02
2017-08-18T00:28:13.348Z,1001.02
2017-08-18T00:29:13.373Z,1000.98
2017-08-18T00:30:13.396Z,1000.92
2017-08-18T00:31:13.416Z,1000.92
2017-08-18T00:32:13.443Z,1000.90
2017-08-18T00:33:13.466Z,1000.95
2017-08-18T00:34:13.491Z,1000.91
2017-08-18T00:35:13.525Z,1000.89
2017-08-18T00:36:13.538Z,1000.87
2017-08-18T00:37:13.558Z,1000.88
2017-08-18T00:38:13.586Z,1000.91
2017-08-18T00:39:13.606Z,1000.89
2017-08-18T00:40:13.632Z,1000.89
2017-08-18T00:41:13.659Z,1000.96
2017-08-18T00:42:13.681Z,1000.94
2017-08-18T00:43:13.702Z,1000.96
2017-08-18T00:44:13.726Z,1000.99
2017-08-18T00:45:13.749Z,1001.02
2017-08-18T00:46:13.773Z,1001.04
2017-08-18T00:47:13.800Z,1001.08
2017-08-18T00:48:13.820Z,1001.11
2017-08-18T00:49:13.843Z,1001.09
2017-08-18T00:50:13.866Z,1001.11
2017-08-18T00:51:13.892Z,1001.09
2017-08-18T00:52:13.913Z,1001.12
2017-08-18T00:53:13.939Z,1001.08
2017-08-18T00:54:13.962Z,1001.08
2017-08-18T00:55:13.987Z,1001.11
2017-08-18T00:56:14.015Z,1001.12
2017-08-18T00:57:14.033Z,1001.10
2017-08-18T00:58:14.054Z,1001.12
2017-08-18T00:59:14.079Z,1001.12
2017-08-18T01:00:14.104Z,1001.11
2017-08-18T01:01:14.126Z,1001.11
2017-08-18T01:02:14.150Z,1001.10
2017-08-18T01:03:14.171Z,1001.06
2017-08-18T01:04:14.197Z,1001.02
2017-08-18T01:05:14.222Z,1000.97
2017-08-18T01:06:14.250Z,1000.92
2017-08-18T01:07:14.267Z,1000.85
2017-08-18T01:08:14.296Z,1000.85
2017-08-18T01:09:14.312Z,1000.89
2017-08-18T01:10:14.339Z,1000.93
2017-08-18T01:11:14.362Z,1000.87
2017-08-18T01:12:14.388Z,1000.97
2017-08-18T01:13:14.425Z,1000.99
2017-08-18T01:14:14.439Z,1001.01
2017-08-18T01:15:14.455Z,1001.04
2017-08-18T01:16:14.485Z,1001.02
2017-08-18T01:17:14.501Z,1001.01
2017-08-18T01:18:14.528Z,1001.01
2017-08-18T01:19:14.551Z,1000.99
2017-08-18T01:20:14.572Z,1000.98
2017-08-18T01:21:14.608Z,1000.98
2017-08-18T01:22:14.630Z,1000.97
2017-08-18T01:23:14.647Z,1000.97
2017-08-18T01:24:14.680Z,1000.94
2017-08-18T01:25:14.702Z,1000.93
2017-08-18T01:26:14.719Z,1000.96
2017-08-18T01:27:14.751Z,1000.95
2017-08-18T01:28:14.774Z,1000.95
2017-08-18T01:29:14.786Z,1000.97
2017-08-18T01:30:14.811Z,1000.94
2017-08-18T01:31:14.831Z,1000.93
2017-08-18T01:32:14.862Z,1000.92
2017-08-18T01:33:14.881Z,1000.95
2017-08-18T01:34:14.908Z,1000.91
2017-08-18T01:35:14.925Z,1000.93
2017-08-18T01:36:14.949Z,1000.88
2017-08-18T01:37:14.974Z,1000.89
2017-08-18T01:38:14.999Z,1000.84
2017-08-18T01:39:15.016Z,1000.82
2017-08-18T01:40:15.043Z,1000.81
2017-08-18T01:41:15.065Z,1000.80
2017-08-18T01:42:15.095Z,1000.72
2017-08-18T01:43:15.115Z,1000.77
2017-08-18T01:44:15.143Z,1000.72
2017-08-18T01:45:15.164Z,1000.72
2017-08-18T01:46:15.184Z,1000.71
2017-08-18T01:47:15.230Z,1000.72
2017-08-18T01:48:15.232Z,1000.71
2017-08-18T01:49:15.255Z,1000.68
2017-08-18T01:50:15.289Z,1000.69
2017-08-18T01:51:15.308Z,1000.64
2017-08-18T01:52:15.324Z,1000.68
2017-08-18T01:53:15.347Z,1000.65
2017-08-18T01:54:15.375Z,1000.64
2017-08-18T01:55:15.396Z,1000.67
2017-08-18T01:56:15.417Z,1000.69
2017-08-18T01:57:15.442Z,1000.70
2017-08-18T01:58:15.464Z,1000.69
2017-08-18T01:59:15.488Z,1000.68
2017-08-18T02:00:15.512Z,1000.71
2017-08-18T02:01:15.534Z,1000.76
2017-08-18T02:02:15.560Z,1000.77
2017-08-18T02:03:15.589Z,1000.83
2017-08-18T02:04:15.613Z,1000.77
2017-08-18T02:05:15.629Z,1000.81
2017-08-18T02:06:15.652Z,1000.80
2017-08-18T02:07:15.677Z,1000.80
2017-08-18T02:08:15.699Z,1000.76
2017-08-18T02:09:15.726Z,1000.74
2017-08-18T02:10:15.773Z,1000.74
2017-08-18T02:11:15.769Z,1000.77
2017-08-18T02:12:15.795Z,1000.77
2017-08-18T02:13:15.821Z,1000.77
2017-08-18T02:14:15.841Z,1000.76
2017-08-18T02:15:15.862Z,1000.74
2017-08-18T02:16:15.890Z,1000.71
2017-08-18T02:17:15.910Z,1000.70
2017-08-18T02:18:15.932Z,1000.74
2017-08-18T02:19:15.965Z,1000.77
2017-08-18T02:20:15.981Z,1000.80
2017-08-18T02:21:16.004Z,1000.79
2017-08-18T02:22:16.027Z,1000.76
2017-08-18T02:23:16.051Z,1000.75
2017-08-18T02:24:16.073Z,1000.77
2017-08-18T02:25:16.108Z,1000.77
2017-08-18T02:26:16.130Z,1000.75
2017-08-18T02:27:16.148Z,1000.68
2017-08-18T02:28:16.171Z,1000.67
2017-08-18T02:29:16.193Z,1000.63
2017-08-18T02:30:16.219Z,1000.59
2017-08-18T02:31:16.239Z,1000.63
2017-08-18T02:32:16.263Z,1000.55
2017-08-18T02:33:16.289Z,1000.55
2017-08-18T02:34:16.311Z,1000.52
2017-08-18T02:35:16.333Z,1000.49
2017-08-18T02:36:16.356Z,1000.50
2017-08-18T02:37:16.384Z,1000.45
2017-08-18T02:38:16.408Z,1000.46
2017-08-18T02:39:16.429Z,1000.44
2017-08-18T02:40:16.454Z,1000.42
2017-08-18T02:41:16.476Z,1000.37
2017-08-18T02:42:16.511Z,1000.37
2017-08-18T02:43:16.524Z,1000.32
2017-08-18T02:44:16.548Z,1000.27
2017-08-18T02:45:16.571Z,1000.27
2017-08-18T02:46:16.592Z,1000.28
2017-08-18T02:47:16.617Z,1000.28
2017-08-18T02:48:16.646Z,1000.29
2017-08-18T02:49:16.666Z,1000.27
2017-08-18T02:50:16.689Z,1000.24
2017-08-18T02:51:16.710Z,1000.22
2017-08-18T02:52:16.736Z,1000.21
2017-08-18T02:53:16.757Z,1000.23
2017-08-18T02:54:16.782Z,1000.27
2017-08-18T02:55:16.807Z,1000.29
2017-08-18T02:56:16.830Z,1000.30
2017-08-18T02:57:16.851Z,1000.25
2017-08-18T02:58:16.888Z,1000.20
2017-08-18T02:59:16.903Z,1000.19
2017-08-18T03:00:16.931Z,1000.20
2017-08-18T03:01:16.950Z,1000.18
2017-08-18T03:02:16.974Z,1000.21
2017-08-18T03:03:16.991Z,1000.16
2017-08-18T03:04:17.033Z,1000.15
2017-08-18T03:05:17.040Z,1000.15
2017-08-18T03:06:17.066Z,1000.17
2017-08-18T03:07:17.093Z,1000.17
2017-08-18T03:08:17.114Z,1000.21
2017-08-18T03:09:17.134Z,1000.18
2017-08-18T03:10:17.166Z,1000.27
2017-08-18T03:11:17.183Z,1000.27
2017-08-18T03:12:17.210Z,1000.27
2017-08-18T03:13:17.242Z,1000.28
2017-08-18T03:14:17.259Z,1000.24
2017-08-18T03:15:17.276Z,1000.24
2017-08-18T03:16:17.299Z,1000.23
2017-08-18T03:17:17.323Z,1000.23
2017-08-18T03:18:17.346Z,1000.30
2017-08-18T03:19:17.368Z,1000.33
2017-08-18T03:20:17.397Z,1000.28
2017-08-18T03:21:17.415Z,1000.32
2017-08-18T03:22:17.443Z,1000.33
2017-08-18T03:23:17.462Z,1000.33
2017-08-18T03:24:17.491Z,1000.36
2017-08-18T03:25:17.512Z,1000.37
2017-08-18T03:26:17.534Z,1000.34
2017-08-18T03:27:17.561Z,1000.41
2017-08-18T03:28:17.580Z,1000.40
2017-08-18T03:29:17.603Z,1000.41
2017-08-18T03:30:17.630Z,1000.37
2017-08-18T03:31:17.654Z,1000.39
2017-08-18T03:32:17.681Z,1000.41
2017-08-18T03:33:17.704Z,1000.41
2017-08-18T03:34:17.722Z,1000.42
2017-08-18T03:35:17.745Z,1000.41
2017-08-18T03:36:17.769Z,1000.42
2017-08-18T03:37:17.790Z,1000.44
2017-08-18T03:38:17.819Z,1000.42
2017-08-18T03:39:17.838Z,1000.42
2017-08-18T03:40:17.860Z,1000.43
2017-08-18T03:41:17.885Z,1000.42
2017-08-18T03:42:17.910Z,1000.37
2017-08-18T03:43:17.930Z,1000.40
2017-08-18T03:44:17.957Z,1000.39
2017-08-18T03:45:17.979Z,1000.38
2017-08-18T03:46:18.002Z,1000.39
2017-08-18T03:47:18.030Z,1000.45
2017-08-18T03:48:18.066Z,1000.45
2017-08-18T03:49:18.209Z,1000.51
2017-08-18T03:50:18.113Z,1000.55
2017-08-18T03:51:18.117Z,1000.59
2017-08-18T03:52:18.143Z,1000.63
2017-08-18T03:53:18.166Z,1000.59
2017-08-18T03:54:18.192Z,1000.59
2017-08-18T03:55:18.214Z,1000.59
2017-08-18T03:56:18.238Z,1000.52
2017-08-18T03:57:18.261Z,1000.54
2017-08-18T03:58:18.283Z,1000.51
2017-08-18T03:59:18.315Z,1000.49
2017-08-18T04:00:18.329Z,1000.49
2017-08-18T04:01:18.353Z,1000.45
2017-08-18T04:02:18.377Z,1000.47
2017-08-18T04:03:18.399Z,1000.45
2017-08-18T04:04:18.423Z,1000.45
2017-08-18T04:05:18.445Z,1000.43
2017-08-18T04:06:18.471Z,1000.39
2017-08-18T04:07:18.494Z,1000.39
2017-08-18T04:08:18.523Z,1000.41
2017-08-18T04:09:18.541Z,1000.43
2017-08-18T04:10:18.565Z,1000.39
2017-08-18T04:11:18.590Z,1000.38
2017-08-18T04:12:18.612Z,1000.36
2017-08-18T04:13:18.633Z,1000.29
2017-08-18T04:14:18.668Z,1000.31
2017-08-18T04:15:18.681Z,1000.30
2017-08-18T04:16:18.724Z,1000.31
2017-08-18T04:17:18.728Z,1000.33
2017-08-18T04:18:18.759Z,1000.35
2017-08-18T04:19:18.779Z,1000.38
2017-08-18T04:20:18.800Z,1000.43
2017-08-18T04:21:18.832Z,1000.41
2017-08-18T04:22:18.847Z,1000.43
2017-08-18T04:23:18.866Z,1000.41
2017-08-18T04:24:18.897Z,1000.39
2017-08-18T04:25:18.920Z,1000.34
2017-08-18T04:26:18.941Z,1000.30
2017-08-18T04:27:18.978Z,1000.28
2017-08-18T04:28:18.987Z,1000.30
2017-08-18T04:29:19.012Z,1000.30
2017-08-18T04:30:19.035Z,1000.28
2017-08-18T04:31:19.063Z,1000.27
2017-08-18T04:32:19.083Z,1000.24
2017-08-18T04:33:19.116Z,1000.20
2017-08-18T04:34:19.135Z,1000.22
2017-08-18T04:35:19.151Z,1000.22
2017-08-18T04:36:19.174Z,1000.23
2017-08-18T04:37:19.198Z,1000.27
2017-08-18T04:38:19.221Z,1000.26
2017-08-18T04:39:19.258Z,1000.35
2017-08-18T04:40:19.272Z,1000.33
2017-08-18T04:41:19.294Z,1000.33
2017-08-18T04:42:19.317Z,1000.30
2017-08-18T04:43:19.338Z,1000.31
2017-08-18T04:44:19.362Z,1000.30
2017-08-18T04:45:19.393Z,1000.31
2017-08-18T04:46:19.410Z,1000.32
2017-08-18T04:47:19.434Z,1000.31
2017-08-18T04:48:19.462Z,1000.32
2017-08-18T04:49:19.480Z,1000.33
2017-08-18T04:50:19.508Z,1000.30
2017-08-18T04:51:19.535Z,1000.27
2017-08-18T04:52:19.553Z,1000.23
2017-08-18T04:53:19.575Z,1000.19
2017-08-18T04:54:19.599Z,1000.12
2017-08-18T04:55:19.629Z,1000.14
2017-08-18T04:56:19.645Z,1000.15
2017-08-18T04:57:19.673Z,1000.15
2017-08-18T04:58:19.693Z,1000.18
2017-08-18T04:59:19.719Z,1000.21
2017-08-18T05:00:19.738Z,1000.18
2017-08-18T05:01:19.767Z,1000.20
2017-08-18T05:02:19.787Z,1000.17
2017-08-18T05:03:19.816Z,1000.19
2017-08-18T05:04:19.860Z,1000.17
2017-08-18T05:05:19.861Z,1000.11
2017-08-18T05:06:19.883Z,1000.14
2017-08-18T05:07:19.910Z,1000.11
2017-08-18T05:08:19.928Z,1000.04
2017-08-18T05:09:19.958Z,1000.09
2017-08-18T05:10:19.979Z,1000.09
2017-08-18T05:11:20.004Z,1000.08
2017-08-18T05:12:20.028Z,1000.08
2017-08-18T05:13:20.050Z,1000.03
2017-08-18T05:14:20.073Z,1000.00
2017-08-18T05:15:20.101Z,999.99
2017-08-18T05:16:20.121Z,999.98
2017-08-18T05:17:20.152Z,1000.00
2017-08-18T05:18:20.169Z,999.99
2017-08-18T05:19:20.197Z,999.96
2017-08-18T05:20:20.215Z,999.93
2017-08-18T05:21:20.242Z,999.93
2017-08-18T05:22:20.263Z,999.97
2017-08-18T05:23:20.286Z,999.95
2017-08-18T05:24:20.315Z,999.96
2017-08-18T05:25:20.352Z,999.96
2017-08-18T05:26:20.359Z,999.99
2017-08-18T05:27:20.380Z,999.96
2017-08-18T05:28:20.404Z,999.95
2017-08-18T05:29:20.430Z,999.98
2017-08-18T05:30:20.470Z,1000.03
2017-08-18T05:31:20.476Z,1000.03
2017-08-18T05:32:20.501Z,1000.04
2017-08-18T05:33:20.533Z,1000.02
2017-08-18T05:34:20.547Z,999.98
2017-08-18T05:35:20.575Z,1000.04
2017-08-18T05:36:20.595Z,999.99
2017-08-18T05:37:20.618Z,1000.01
2017-08-18T05:38:20.641Z,1000.04
2017-08-18T05:39:20.671Z,1000.05
2017-08-18T05:40:20.689Z,1000.10
2017-08-18T05:41:20.714Z,1000.09
2017-08-18T05:42:20.739Z,1000.09
2017-08-18T05:43:20.761Z,1000.11
2017-08-18T05:44:20.788Z,1000.05
2017-08-18T05:45:20.812Z,1000.07
2017-08-18T05:46:20.833Z,1000.07
2017-08-18T05:47:20.856Z,1000.07
2017-08-18T05:48:20.880Z,1000.09
2017-08-18T05:49:20.903Z,1000.08
2017-08-18T05:50:20.930Z,1000.07
2017-08-18T05:51:20.957Z,1000.08
2017-08-18T05:52:20.974Z,1000.06
2017-08-18T05:53:20.998Z,1000.03
2017-08-18T05:54:21.024Z,1000.04
2017-08-18T05:55:21.046Z,1000.06
2017-08-18T05:56:21.072Z,1000.01
2017-08-18T05:57:21.097Z,1000.03
2017-08-18T05:58:21.121Z,1000.01
2017-08-18T05:59:21.141Z,1000.04
2017-08-18T06:00:21.165Z,1000.02
2017-08-18T06:01:21.203Z,1000.02
2017-08-18T06:02:21.223Z,1000.03
2017-08-18T06:03:21.240Z,1000.05
2017-08-18T06:04:21.263Z,1000.07
2017-08-18T06:05:21.287Z,1000.10
2017-08-18T06:06:21.315Z,1000.15
2017-08-18T06:07:21.332Z,1000.10
2017-08-18T06:08:21.360Z,1000.13
2017-08-18T06:09:21.387Z,1000.12
2017-08-18T06:10:21.404Z,1000.14
2017-08-18T06:11:21.428Z,1000.14
2017-08-18T06:12:21.454Z,1000.16
2017-08-18T06:13:21.487Z,1000.13
2017-08-18T06:14:21.498Z,1000.14
2017-08-18T06:15:21.521Z,1000.05
2017-08-18T06:16:21.547Z,1000.00
2017-08-18T06:17:21.569Z,999.98
2017-08-18T06:18:21.596Z,999.98
2017-08-18T06:19:21.616Z,999.97
2017-08-18T06:20:21.641Z,999.92
2017-08-18T06:21:21.669Z,999.88
2017-08-18T06:22:21.689Z,999.85
2017-08-18T06:23:21.710Z,999.79
2017-08-18T06:24:21.736Z,999.74
2017-08-18T06:25:21.760Z,999.70
2017-08-18T06:26:21.794Z,999.67
2017-08-18T06:27:21.815Z,999.71
2017-08-18T06:28:21.833Z,999.80
2017-08-18T06:29:21.852Z,999.85
2017-08-18T06:30:21.881Z,999.95
2017-08-18T06:31:21.901Z,999.96
2017-08-18T06:32:21.924Z,999.95
2017-08-18T06:33:21.956Z,999.96
2017-08-18T06:34:21.973Z,999.98
2017-08-18T06:35:22.003Z,999.99
2017-08-18T06:36:22.024Z,1000.00
2017-08-18T06:37:22.045Z,999.97
2017-08-18T06:38:22.071Z,999.97
2017-08-18T06:39:22.093Z,999.90
2017-08-18T06:40:22.115Z,999.90
2017-08-18T06:41:22.139Z,999.86
2017-08-18T06:42:22.164Z,999.82
2017-08-18T06:43:22.190Z,999.78
2017-08-18T06:44:22.213Z,999.75
2017-08-18T06:45:22.239Z,999.75
2017-08-18T06:46:22.259Z,999.74
2017-08-18T06:47:22.282Z,999.73
2017-08-18T06:48:22.306Z,999.69
2017-08-18T06:49:22.332Z,999.66
2017-08-18T06:50:22.356Z,999.62
2017-08-18T06:51:22.387Z,999.59
2017-08-18T06:52:22.401Z,999.59
2017-08-18T06:53:22.430Z,999.58
2017-08-18T06:54:22.450Z,999.62
2017-08-18T06:55:22.475Z,999.58
2017-08-18T06:56:22.498Z,999.57
2017-08-18T06:57:22.525Z,999.59
2017-08-18T06:58:22.544Z,999.56
2017-08-18T06:59:22.572Z,999.60
2017-08-18T07:00:22.598Z,999.60
2017-08-18T07:01:22.617Z,999.58
2017-08-18T07:02:22.641Z,999.65
2017-08-18T07:03:22.689Z,999.63
2017-08-18T07:04:22.688Z,999.65
2017-08-18T07:05:22.712Z,999.63
2017-08-18T07:06:22.737Z,999.63
2017-08-18T07:07:22.764Z,999.62
2017-08-18T07:08:22.794Z,999.57
2017-08-18T07:09:22.809Z,999.59
2017-08-18T07:10:22.832Z,999.57
2017-08-18T07:11:22.855Z,999.59
2017-08-18T07:12:22.880Z,999.60
2017-08-18T07:13:22.906Z,999.56
2017-08-18T07:14:22.929Z,999.53
2017-08-18T07:15:22.953Z,999.53
2017-08-18T07:16:22.976Z,999.47
2017-08-18T07:17:23.000Z,999.49
2017-08-18T07:18:23.025Z,999.48
2017-08-18T07:19:23.051Z,999.53
2017-08-18T07:20:23.073Z,999.54
2017-08-18T07:21:23.099Z,999.58
2017-08-18T07:22:23.122Z,999.60
2017-08-18T07:23:23.143Z,999.67
2017-08-18T07:24:23.170Z,999.73
2017-08-18T07:25:23.195Z,999.73
2017-08-18T07:26:23.227Z,999.67
2017-08-18T07:27:23.385Z,999.66
2017-08-18T07:28:23.266Z,999.65
2017-08-18T07:29:23.293Z,999.65
2017-08-18T07:30:23.315Z,999.65
2017-08-18T07:31:23.336Z,999.62
2017-08-18T07:32:23.360Z,999.61
2017-08-18T07:33:23.388Z,999.59
2017-08-18T07:34:23.413Z,999.61
2017-08-18T07:35:23.434Z,999.59
2017-08-18T07:36:23.456Z,999.59
2017-08-18T07:37:23.488Z,999.58
2017-08-18T07:38:23.509Z,999.58
2017-08-18T07:39:23.529Z,999.57
2017-08-18T07:40:23.573Z,999.53
2017-08-18T07:41:23.594Z,999.54
2017-08-18T07:42:23.602Z,999.57
2017-08-18T07:43:23.632Z,999.50
2017-08-18T07:44:23.649Z,999.53
2017-08-18T07:45:23.675Z,999.52
2017-08-18T07:46:23.701Z,999.55
2017-08-18T07:47:23.723Z,999.57
2017-08-18T07:48:23.749Z,999.55
2017-08-18T07:49:23.775Z,999.55
2017-08-18T07:50:23.797Z,999.49
2017-08-18T07:51:23.820Z,999.49
2017-08-18T07:52:23.845Z,999.48
2017-08-18T07:53:23.871Z,999.40
2017-08-18T07:54:23.893Z,999.35
2017-08-18T07:55:23.923Z,999.32
2017-08-18T07:56:23.943Z,999.32
2017-08-18T07:57:23.969Z,999.27
2017-08-18T07:58:23.992Z,999.25
2017-08-18T07:59:24.014Z,999.22
2017-08-18T08:00:24.040Z,999.22
2017-08-18T08:01:24.071Z,999.18
2017-08-18T08:02:24.096Z,999.21
2017-08-18T08:03:24.112Z,999.25
2017-08-18T08:04:24.138Z,999.24
2017-08-18T08:05:24.161Z,999.21
2017-08-18T08:06:24.203Z,999.26
2017-08-18T08:07:24.213Z,999.25
2017-08-18T08:08:24.240Z,999.29
2017-08-18T08:09:24.261Z,999.30
2017-08-18T08:10:24.284Z,999.28
2017-08-18T08:11:24.315Z,999.35
2017-08-18T08:12:24.343Z,999.36
2017-08-18T08:13:24.360Z,999.42
2017-08-18T08:14:24.387Z,999.44
2017-08-18T08:15:24.411Z,999.43
2017-08-18T08:16:24.431Z,999.45
2017-08-18T08:17:24.469Z,999.46
2017-08-18T08:18:24.497Z,999.47
2017-08-18T08:19:24.509Z,999.47
2017-08-18T08:20:24.529Z,999.48
2017-08-18T08:21:24.558Z,999.48
2017-08-18T08:22:24.578Z,999.49
2017-08-18T08:23:24.615Z,999.46
2017-08-18T08:24:24.628Z,999.42
2017-08-18T08:25:24.651Z,999.44
2017-08-18T08:26:24.679Z,999.39
2017-08-18T08:27:24.708Z,999.41
2017-08-18T08:28:24.735Z,999.40
2017-08-18T08:29:24.756Z,999.42
2017-08-18T08:30:24.775Z,999.45
2017-08-18T08:31:24.800Z,999.44
2017-08-18T08:32:24.821Z,999.44
2017-08-18T08:33:24.849Z,999.40
2017-08-18T08:34:24.870Z,999.35
2017-08-18T08:35:24.903Z,999.31
2017-08-18T08:36:24.925Z,999.27
2017-08-18T08:37:24.944Z,999.29
2017-08-18T08:38:24.970Z,999.29
2017-08-18T08:39:25.003Z,999.30
2017-08-18T08:40:25.026Z,999.30
2017-08-18T08:41:25.044Z,999.36
2017-08-18T08:42:25.070Z,999.31
2017-08-18T08:43:25.091Z,999.31
2017-08-18T08:44:25.118Z,999.26
2017-08-18T08:45:25.139Z,999.23
2017-08-18T08:46:25.168Z,999.23
2017-08-18T08:47:25.194Z,999.25
2017-08-18T08:48:25.219Z,999.29
2017-08-18T08:49:25.237Z,999.28
2017-08-18T08:50:25.263Z,999.31
2017-08-18T08:51:25.288Z,999.35
2017-08-18T08:52:25.309Z,999.38
2017-08-18T08:53:25.461Z,999.40
2017-08-18T08:54:25.358Z,999.41
2017-08-18T08:55:25.384Z,999.40
2017-08-18T08:56:25.406Z,999.42
2017-08-18T08:57:25.444Z,999.38
2017-08-18T08:58:25.463Z,999.42
2017-08-18T08:59:25.479Z,999.39
2017-08-18T09:00:25.506Z,999.46
2017-08-18T09:01:25.529Z,999.42
2017-08-18T09:02:25.552Z,999.43
2017-08-18T09:03:25.589Z,999.48
2017-08-18T09:04:25.606Z,999.55
2017-08-18T09:05:25.627Z,999.59
2017-08-18T09:06:25.651Z,999.67
2017-08-18T09:07:25.716Z,999.70
2017-08-18T09:08:25.711Z,999.68
2017-08-18T09:09:25.726Z,999.71
2017-08-18T09:10:25.749Z,999.73
2017-08-18T09:11:25.772Z,999.77
2017-08-18T09:12:25.795Z,999.79
2017-08-18T09:13:25.820Z,999.77
2017-08-18T09:14:25.846Z,999.78
2017-08-18T09:15:25.869Z,999.81
2017-08-18T09:16:25.900Z,999.80
2017-08-18T09:17:25.917Z,999.81
2017-08-18T09:18:25.943Z,999.79
2017-08-18T09:19:25.962Z,999.79
2017-08-18T09:20:25.993Z,999.78
2017-08-18T09:21:26.012Z,999.75
2017-08-18T09:22:26.037Z,999.71
2017-08-18T09:23:26.063Z,999.68
2017-08-18T09:24:26.090Z,999.54
2017-08-18T09:25:26.113Z,999.50
2017-08-18T09:26:26.139Z,999.41
2017-08-18T09:27:26.158Z,999.49
2017-08-18T09:28:26.182Z,999.57
2017-08-18T09:29:26.208Z,999.66
2017-08-18T09:30:26.232Z,999.55
2017-08-18T09:31:26.253Z,999.51
2017-08-18T09:32:26.286Z,999.45
2017-08-18T09:33:26.327Z,999.47
2017-08-18T09:34:26.329Z,999.51
2017-08-18T09:35:26.351Z,999.54
2017-08-18T09:36:26.375Z,999.53
2017-08-18T09:37:26.402Z,999.44
2017-08-18T09:38:26.429Z,999.38
2017-08-18T09:39:26.453Z,999.31
2017-08-18T09:40:26.470Z,999.29
2017-08-18T09:41:26.501Z,999.29
2017-08-18T09:42:26.522Z,999.25
2017-08-18T09:43:26.547Z,999.18
2017-08-18T09:44:26.570Z,999.14
2017-08-18T09:45:26.594Z,999.23
2017-08-18T09:46:26.622Z,999.24
2017-08-18T09:47:26.643Z,999.28
2017-08-18T09:48:26.666Z,999.24
2017-08-18T09:49:26.692Z,999.22
2017-08-18T09:50:26.715Z,999.14
2017-08-18T09:51:26.745Z,999.09
2017-08-18T09:52:26.764Z,999.09
2017-08-18T09:53:26.792Z,999.07
2017-08-18T09:54:26.818Z,999.04
2017-08-18T09:55:26.844Z,999.06
2017-08-18T09:56:26.865Z,999.06
2017-08-18T09:57:26.891Z,999.11
2017-08-18T09:58:26.916Z,999.18
2017-08-18T09:59:26.938Z,999.24
2017-08-18T10:00:26.966Z,999.24
2017-08-18T10:01:26.993Z,999.24
2017-08-18T10:02:27.014Z,999.20
2017-08-18T10:03:27.040Z,999.12
2017-08-18T10:04:27.066Z,999.06
2017-08-18T10:05:27.084Z,999.16
2017-08-18T10:06:27.111Z,999.19
2017-08-18T10:07:27.136Z,999.18
2017-08-18T10:08:27.159Z,999.14
2017-08-18T10:09:27.184Z,999.16
2017-08-18T10:10:27.212Z,999.22
2017-08-18T10:11:27.233Z,999.26
2017-08-18T10:12:27.264Z,999.27
2017-08-18T10:13:27.282Z,999.30
2017-08-18T10:14:27.309Z,999.25
2017-08-18T10:15:27.335Z,999.23
2017-08-18T10:16:27.359Z,999.29
2017-08-18T10:17:27.386Z,999.28
2017-08-18T10:18:27.418Z,999.29
2017-08-18T10:19:27.434Z,999.25
2017-08-18T10:20:27.460Z,999.18
2017-08-18T10:21:27.483Z,999.16
2017-08-18T10:22:27.506Z,999.12
2017-08-18T10:23:27.531Z,999.08
2017-08-18T10:24:27.557Z,999.04
2017-08-18T10:25:27.582Z,998.98
2017-08-18T10:26:27.609Z,999.03
2017-08-18T10:27:27.631Z,998.98
2017-08-18T10:28:27.662Z,999.03
2017-08-18T10:29:27.683Z,999.03
2017-08-18T10:30:27.706Z,999.05
2017-08-18T10:31:27.728Z,999.08
2017-08-18T10:32:27.755Z,999.02
2017-08-18T10:33:27.783Z,998.98
2017-08-18T10:34:27.806Z,998.98
2017-08-18T10:35:27.833Z,998.96
2017-08-18T10:36:27.857Z,998.97
2017-08-18T10:37:27.882Z,999.00
2017-08-18T10:38:27.909Z,998.98
2017-08-18T10:39:27.933Z,998.99
2017-08-18T10:40:27.960Z,999.03
2017-08-18T10:41:27.983Z,999.07
2017-08-18T10:42:28.009Z,999.07
2017-08-18T10:43:28.032Z,999.06
2017-08-18T10:44:28.061Z,999.05
2017-08-18T10:45:28.084Z,999.03
2017-08-18T10:46:28.113Z,999.01
2017-08-18T10:47:28.140Z,999.02
2017-08-18T10:48:28.165Z,999.04
2017-08-18T10:49:28.188Z,999.05
2017-08-18T10:50:28.214Z,999.07
2017-08-18T10:51:28.237Z,999.12
2017-08-18T10:52:28.269Z,999.15
2017-08-18T10:53:28.295Z,999.18
2017-08-18T10:54:28.319Z,999.20
2017-08-18T10:55:28.338Z,999.24
2017-08-18T10:56:28.372Z,999.26
2017-08-18T10:57:28.389Z,999.27
2017-08-18T10:58:28.422Z,999.34
2017-08-18T10:59:28.439Z,999.36
2017-08-18T11:00:28.465Z,999.32
2017-08-18T11:01:28.491Z,999.34
2017-08-18T11:02:28.518Z,999.30
2017-08-18T11:03:28.542Z,999.29
2017-08-18T11:04:28.565Z,999.28
2017-08-18T11:05:28.593Z,999.28
2017-08-18T11:06:28.622Z,999.27
2017-08-18T11:07:28.645Z,999.25
2017-08-18T11:08:28.668Z,999.23
2017-08-18T11:09:28.696Z,999.24
2017-08-18T11:10:28.728Z,999.16
2017-08-18T11:11:28.743Z,999.13
2017-08-18T11:12:28.776Z,999.09
2017-08-18T11:13:28.797Z,999.07
2017-08-18T11:14:28.822Z,999.08
2017-08-18T11:15:28.861Z,999.08
2017-08-18T11:16:28.869Z,999.10
2017-08-18T11:17:28.898Z,999.03
2017-08-18T11:18:28.924Z,998.97
2017-08-18T11:19:28.947Z,998.88
2017-08-18T11:20:28.976Z,998.78
2017-08-18T11:21:29.000Z,998.69
2017-08-18T11:22:29.024Z,998.64
2017-08-18T11:23:29.048Z,998.70
2017-08-18T11:24:29.077Z,998.73
2017-08-18T11:25:29.102Z,998.74
2017-08-18T11:26:29.126Z,998.73
2017-08-18T11:27:29.155Z,998.67
2017-08-18T11:28:29.179Z,998.63
2017-08-18T11:29:29.206Z,998.59
2017-08-18T11:30:29.230Z,998.58
2017-08-18T11:31:29.254Z,998.56
2017-08-18T11:32:29.285Z,998.56
2017-08-18T11:33:29.306Z,998.53
2017-08-18T11:34:29.334Z,998.48
2017-08-18T11:35:29.356Z,998.47
2017-08-18T11:36:29.382Z,998.48
2017-08-18T11:37:29.414Z,998.48
2017-08-18T11:38:29.433Z,998.47
2017-08-18T11:39:29.464Z,998.52
2017-08-18T11:40:29.484Z,998.59
2017-08-18T11:41:29.523Z,998.60
2017-08-18T11:42:29.533Z,998.53
2017-08-18T11:43:29.559Z,998.60
2017-08-18T11:44:29.591Z,998.63
2017-08-18T11:45:29.612Z,998.60
2017-08-18T11:46:29.637Z,998.55
2017-08-18T11:47:29.663Z,998.55
2017-08-18T11:48:29.689Z,998.56
2017-08-18T11:49:29.714Z,998.62
2017-08-18T11:50:29.744Z,998.67
2017-08-18T11:51:29.765Z,998.65
2017-08-18T11:52:29.790Z,998.63
2017-08-18T11:53:29.823Z,998.63
2017-08-18T11:54:29.843Z,998.71
2017-08-18T11:55:29.873Z,998.65
2017-08-18T11:56:29.892Z,998.63
2017-08-18T11:57:29.918Z,998.65
2017-08-18T11:58:29.947Z,998.63
2017-08-18T11:59:29.970Z,998.69
2017-08-18T12:00:29.995Z,998.68
2017-08-18T12:01:30.030Z,998.68
2017-08-18T12:02:30.045Z,998.67
2017-08-18T12:03:30.074Z,998.68
2017-08-18T12:04:30.112Z,998.70
2017-08-18T12:05:30.122Z,998.69
2017-08-18T12:06:30.148Z,998.70
2017-08-18T12:07:30.173Z,998.67
2017-08-18T12:08:30.200Z,998.65
2017-08-18T12:09:30.224Z,998.62
2017-08-18T12:10:30.251Z,998.62
2017-08-18T12:11:30.276Z,998.61
2017-08-18T12:12:30.301Z,998.58
2017-08-18T12:13:30.332Z,998.52
2017-08-18T12:14:30.356Z,998.50
2017-08-18T12:15:30.380Z,998.51
2017-08-18T12:16:30.401Z,998.48
2017-08-18T12:17:30.430Z,998.44